Time;durP1;ratioP1;P1;durP2;ratioP2;P2;SDS_P1;SDS_P2;PMS_P1;PMS_P2;Temp;Humidity;BMP_temperature;BMP_pressure;BME280_temperature;BME280_humidity;BME280_pressure;Samples;Min_cycle;Max_cycle;Signal;HPM_P1;HPM_P2
2023/01/09 00:01:46;;;;;;;4.28;3.10;;;6.70;99.90;;;;;;5071209;28;20215;-69
2023/01/09 00:04:13;;;;;;;3.63;2.58;;;6.70;99.90;;;;;;5071699;28;20204;-69
2023/01/09 00:06:42;;;;;;;3.00;2.70;;;6.60;99.90;;;;;;5070824;28;20224;-69
2023/01/09 00:09:09;;;;;;;2.30;2.10;;;6.60;99.90;;;;;;5070785;28;20590;-69
2023/01/09 00:11:41;;;;;;;3.17;2.88;;;6.70;99.90;;;;;;5071818;28;20576;-69
2023/01/09 00:14:08;;;;;;;2.60;2.40;;;6.70;99.90;;;;;;5067118;28;20200;-68
2023/01/09 00:16:35;;;;;;;2.63;1.98;;;6.80;99.90;;;;;;5071482;28;20233;-69
2023/01/09 00:19:03;;;;;;;1.90;1.80;;;6.70;99.90;;;;;;5070712;28;20220;-69
2023/01/09 00:21:30;;;;;;;2.47;2.00;;;6.80;99.90;;;;;;5071407;28;20254;-69
2023/01/09 00:23:56;;;;;;;2.35;2.15;;;6.70;99.90;;;;;;5070538;28;20204;-69
2023/01/09 00:26:23;;;;;;;2.03;1.65;;;6.80;99.90;;;;;;5071195;28;20223;-69
2023/01/09 00:28:52;;;;;;;2.15;1.95;;;6.80;99.90;;;;;;5070868;28;20208;-68
2023/01/09 00:31:20;;;;;;;2.08;1.55;;;6.80;99.90;;;;;;5070952;28;20276;-68
2023/01/09 00:33:52;;;;;;;1.95;1.80;;;6.80;99.90;;;;;;5071166;28;20675;-68
2023/01/09 00:36:21;;;;;;;1.67;1.58;;;6.80;99.90;;;;;;5070979;28;20224;-68
2023/01/09 00:38:47;;;;;;;2.35;2.00;;;6.90;99.90;;;;;;5070415;28;20204;-69
2023/01/09 00:41:16;;;;;;;2.10;1.90;;;6.90;99.90;;;;;;5071724;28;20614;-69
2023/01/09 00:43:46;;;;;;;2.15;1.95;;;6.90;99.90;;;;;;5070127;28;20200;-68
2023/01/09 00:46:15;;;;;;;1.85;1.35;;;6.90;99.90;;;;;;5071227;28;20224;-69
2023/01/09 00:48:44;;;;;;;1.40;1.30;;;6.90;99.90;;;;;;5070230;28;20270;-68
2023/01/09 00:51:11;;;;;;;2.03;1.35;;;6.90;99.90;;;;;;5070901;28;20197;-69
2023/01/09 00:53:42;;;;;;;2.45;1.35;;;6.90;99.90;;;;;;5070932;28;20663;-69
2023/01/09 00:56:14;;;;;;;1.42;1.33;;;6.90;99.90;;;;;;5070534;28;20227;-69
2023/01/09 00:58:41;;;;;;;1.60;1.40;;;7.00;99.90;;;;;;5070116;28;20200;-69
2023/01/09 01:01:09;;;;;;;1.30;1.05;;;6.90;99.90;;;;;;5070608;28;20455;-69
2023/01/09 01:03:36;;;;;;;1.33;1.23;;;7.00;99.90;;;;;;5070767;28;20279;-68
2023/01/09 01:08:48;;;;;;;1.02;0.93;;;7.00;99.90;;;;;;5069796;28;20206;-69
2023/01/09 01:11:16;;;;;;;1.13;1.02;;;7.00;99.90;;;;;;5070542;28;20207;-69
2023/01/09 01:13:43;;;;;;;1.20;1.10;;;7.10;99.90;;;;;;5069982;28;20196;-69
2023/01/09 01:16:12;;;;;;;1.77;1.00;;;7.00;99.90;;;;;;5068031;28;20217;-69
2023/01/09 01:18:39;;;;;;;1.50;1.25;;;7.10;99.90;;;;;;5069158;28;20203;-69
2023/01/09 01:21:07;;;;;;;1.05;0.95;;;7.00;99.90;;;;;;5069974;28;20242;-69
2023/01/09 01:23:34;;;;;;;1.35;1.10;;;7.10;99.90;;;;;;5067239;28;20220;-69
2023/01/09 01:26:07;;;;;;;1.27;1.05;;;7.00;99.90;;;;;;5069597;28;20228;-69
2023/01/09 01:28:34;;;;;;;1.63;0.90;;;7.00;99.90;;;;;;5069233;28;20824;-69
2023/01/09 01:31:01;;;;;;;1.10;0.90;;;7.00;99.90;;;;;;5067735;28;20223;-69
2023/01/09 01:33:28;;;;;;;1.00;0.90;;;6.90;99.90;;;;;;5070012;28;20211;-69
2023/01/09 01:36:00;;;;;;;3.63;1.05;;;6.90;99.90;;;;;;5066434;28;20224;-69
2023/01/09 01:38:28;;;;;;;1.27;1.00;;;6.90;99.90;;;;;;5067147;28;20238;-69
2023/01/09 01:40:55;;;;;;;0.90;0.80;;;6.90;99.90;;;;;;5069693;28;20235;-69
2023/01/09 01:43:23;;;;;;;1.10;0.88;;;6.90;99.90;;;;;;5069312;28;20581;-69
2023/01/09 01:45:50;;;;;;;1.20;1.10;;;7.00;99.90;;;;;;5069426;28;20224;-69
2023/01/09 01:48:20;;;;;;;1.10;0.90;;;6.90;99.90;;;;;;5069541;28;20204;-67
2023/01/09 01:50:50;;;;;;;0.90;0.80;;;6.90;99.90;;;;;;5069445;28;20196;-68
2023/01/09 01:53:20;;;;;;;1.27;0.90;;;6.80;99.90;;;;;;5069979;28;20212;-68
2023/01/09 01:55:56;;;;;;;1.42;0.80;;;6.80;99.90;;;;;;5070296;28;20621;-69
2023/01/09 01:58:27;;;;;;;1.08;0.80;;;6.80;99.90;;;;;;5070171;28;20200;-68
2023/01/09 02:00:53;;;;;;;0.80;0.73;;;6.70;99.90;;;;;;5070393;28;20466;-69
2023/01/09 02:03:25;;;;;;;0.88;0.80;;;6.80;99.90;;;;;;5070388;28;20209;-68
2023/01/09 02:05:51;;;;;;;0.93;0.80;;;6.80;99.90;;;;;;5070386;28;20227;-68
2023/01/09 02:08:19;;;;;;;0.80;0.70;;;6.90;99.90;;;;;;5070252;28;20200;-68
2023/01/09 02:10:47;;;;;;;0.93;0.82;;;6.80;99.90;;;;;;5070300;28;20196;-69
2023/01/09 02:13:14;;;;;;;0.90;0.70;;;6.80;99.90;;;;;;5070406;28;20216;-68
2023/01/09 02:15:54;;;;;;;0.80;0.75;;;6.80;99.90;;;;;;5070549;28;20225;-67
2023/01/09 02:18:43;;;;;;;1.35;0.80;;;6.80;99.90;;;;;;5070192;28;20698;-70
2023/01/09 02:21:18;;;;;;;1.10;0.85;;;6.70;99.90;;;;;;5070338;28;20315;-68
2023/01/09 02:24:22;;;;;;;0.80;0.80;;;6.70;99.90;;;;;;5070337;28;20548;-70
2023/01/09 02:27:14;;;;;;;1.30;0.95;;;6.70;99.90;;;;;;5070207;28;20223;-70
2023/01/09 02:30:23;;;;;;;1.40;1.10;;;6.70;99.90;;;;;;5069913;28;20204;-69
2023/01/09 02:33:13;;;;;;;0.90;0.80;;;6.70;99.90;;;;;;5065150;28;20280;-69
2023/01/09 02:35:53;;;;;;;1.00;0.90;;;6.70;99.90;;;;;;5070175;28;20216;-69
2023/01/09 02:38:28;;;;;;;0.80;0.80;;;6.70;99.90;;;;;;5070085;28;20211;-70
2023/01/09 02:41:01;;;;;;;1.00;0.80;;;6.70;99.90;;;;;;5070288;28;20235;-70
2023/01/09 02:43:29;;;;;;;1.17;1.08;;;6.70;99.90;;;;;;5070358;28;20223;-70
2023/01/09 02:45:57;;;;;;;1.55;1.20;;;6.70;99.90;;;;;;5070519;28;20227;-70
2023/01/09 02:48:23;;;;;;;0.80;0.70;;;6.70;99.90;;;;;;5073931;28;20200;-69
2023/01/09 02:51:00;;;;;;;0.93;0.80;;;6.70;99.90;;;;;;5074113;28;20197;-69
2023/01/09 02:53:46;;;;;;;0.80;0.80;;;6.70;99.90;;;;;;5074257;28;20827;-70
2023/01/09 02:56:28;;;;;;;0.90;0.70;;;6.70;99.90;;;;;;5074067;28;20231;-70
2023/01/09 02:59:15;;;;;;;0.90;0.80;;;6.70;99.90;;;;;;5073468;28;20204;-70
2023/01/09 03:01:56;;;;;;;1.00;0.80;;;6.70;99.90;;;;;;5073898;28;20224;-69
2023/01/09 03:04:29;;;;;;;0.70;0.70;;;6.70;99.90;;;;;;5074044;28;20590;-69
2023/01/09 03:07:01;;;;;;;0.85;0.77;;;6.70;99.90;;;;;;5073735;28;20239;-69
2023/01/09 03:09:31;;;;;;;1.10;1.00;;;6.70;99.90;;;;;;5073427;28;20204;-70
2023/01/09 03:12:03;;;;;;;0.90;0.73;;;6.70;99.90;;;;;;5073624;28;20216;-69
2023/01/09 03:14:33;;;;;;;0.90;0.80;;;6.70;99.90;;;;;;5073911;28;20591;-70
2023/01/09 03:17:06;;;;;;;0.75;0.68;;;6.60;99.90;;;;;;5073581;28;20599;-69
2023/01/09 03:19:35;;;;;;;0.70;0.70;;;6.60;99.90;;;;;;5073232;28;20201;-70
2023/01/09 03:22:02;;;;;;;1.10;0.80;;;6.60;99.90;;;;;;5073607;28;20212;-70
2023/01/09 03:24:29;;;;;;;0.90;0.80;;;6.50;99.90;;;;;;5073636;28;20204;-70
2023/01/09 03:26:56;;;;;;;0.80;0.70;;;6.60;99.90;;;;;;5073438;28;20895;-69
2023/01/09 03:29:22;;;;;;;0.70;0.60;;;6.50;99.90;;;;;;5073151;28;20600;-69
2023/01/09 03:31:49;;;;;;;0.80;0.70;;;6.50;99.90;;;;;;5073396;28;20200;-70
2023/01/09 03:34:17;;;;;;;1.98;1.20;;;6.40;99.90;;;;;;5073437;28;20203;-69
2023/01/09 03:36:44;;;;;;;0.80;0.70;;;6.30;99.90;;;;;;5073357;28;20227;-70
2023/01/09 03:39:10;;;;;;;0.73;0.70;;;6.30;99.90;;;;;;5072929;28;20211;-69
2023/01/09 03:41:37;;;;;;;0.70;0.60;;;6.30;99.90;;;;;;5073143;28;20224;-68
2023/01/09 03:44:04;;;;;;;0.70;0.60;;;6.30;99.90;;;;;;5073376;28;20197;-69
2023/01/09 03:46:30;;;;;;;1.38;0.80;;;6.20;99.90;;;;;;5073195;28;20779;-69
2023/01/09 03:48:57;;;;;;;0.80;0.70;;;6.20;99.90;;;;;;5072572;28;20196;-69
2023/01/09 03:51:25;;;;;;;0.70;0.60;;;6.20;99.90;;;;;;5073100;28;20200;-69
2023/01/09 03:53:52;;;;;;;0.80;0.70;;;6.20;99.90;;;;;;5072901;28;20205;-70
2023/01/09 03:56:19;;;;;;;1.15;0.80;;;6.20;99.90;;;;;;5072980;28;20228;-69
2023/01/09 03:58:45;;;;;;;0.80;0.75;;;6.20;99.90;;;;;;5071228;28;20694;-69
2023/01/09 04:01:12;;;;;;;0.70;0.60;;;6.30;99.90;;;;;;5072813;28;20220;-70
2023/01/09 04:03:40;;;;;;;0.80;0.70;;;6.30;99.90;;;;;;5072907;28;20577;-69
2023/01/09 04:06:07;;;;;;;0.70;0.70;;;6.30;99.90;;;;;;5072690;28;20242;-69
2023/01/09 04:08:35;;;;;;;0.90;0.80;;;6.30;99.90;;;;;;5072447;28;20211;-69
2023/01/09 04:11:02;;;;;;;1.65;0.80;;;6.30;99.90;;;;;;5072720;28;20204;-69
2023/01/09 04:13:29;;;;;;;1.10;0.80;;;6.40;99.90;;;;;;5072777;28;20204;-69
2023/01/09 04:15:55;;;;;;;0.80;0.60;;;6.40;99.90;;;;;;5072498;28;20220;-69
2023/01/09 04:18:22;;;;;;;0.70;0.60;;;6.40;99.90;;;;;;5072247;28;20196;-70
2023/01/09 04:20:49;;;;;;;0.93;0.60;;;6.40;99.90;;;;;;5072288;28;20695;-68
2023/01/09 04:23:16;;;;;;;0.70;0.60;;;6.40;99.90;;;;;;5072588;28;20208;-70
2023/01/09 04:25:44;;;;;;;0.70;0.70;;;6.40;99.90;;;;;;5072202;28;20227;-70
2023/01/09 04:28:11;;;;;;;0.90;0.80;;;6.30;99.90;;;;;;5072247;28;20205;-69
2023/01/09 04:30:38;;;;;;;0.70;0.60;;;6.20;99.90;;;;;;5071771;28;20196;-70
2023/01/09 04:33:04;;;;;;;0.70;0.60;;;6.10;99.90;;;;;;5072186;28;20212;-70
2023/01/09 04:35:31;;;;;;;0.70;0.60;;;6.10;99.90;;;;;;5071373;28;20200;-70
2023/01/09 04:37:59;;;;;;;0.88;0.70;;;6.10;99.90;;;;;;5069531;28;20586;-70
2023/01/09 04:40:26;;;;;;;0.70;0.60;;;6.00;99.90;;;;;;5069043;28;20323;-70
2023/01/09 04:42:54;;;;;;;0.70;0.60;;;6.00;99.90;;;;;;5069338;28;20768;-70
2023/01/09 04:45:21;;;;;;;0.80;0.60;;;6.00;99.90;;;;;;5069495;28;20685;-70
2023/01/09 04:47:47;;;;;;;0.90;0.70;;;5.90;99.90;;;;;;5071604;28;20200;-69
2023/01/09 04:50:15;;;;;;;0.70;0.60;;;5.80;99.90;;;;;;5071561;28;20196;-70
2023/01/09 04:52:41;;;;;;;1.00;0.70;;;5.80;99.90;;;;;;5072558;28;20227;-70
2023/01/09 04:55:09;;;;;;;1.45;0.80;;;5.80;99.90;;;;;;5071826;28;20206;-70
2023/01/09 04:57:36;;;;;;;0.70;0.60;;;5.70;99.90;;;;;;5071703;28;20231;-70
2023/01/09 05:00:08;;;;;;;1.08;0.70;;;5.70;99.90;;;;;;5070976;28;20215;-69
2023/01/09 05:02:35;;;;;;;0.80;0.70;;;5.70;99.90;;;;;;5071491;28;20262;-70
2023/01/09 05:05:02;;;;;;;1.98;0.90;;;5.60;99.90;;;;;;5071504;28;20205;-70
2023/01/09 05:07:28;;;;;;;0.70;0.60;;;5.60;99.90;;;;;;5071542;28;20220;-71
2023/01/09 05:09:55;;;;;;;0.90;0.70;;;5.50;99.90;;;;;;5070421;28;20204;-70
2023/01/09 05:12:22;;;;;;;0.70;0.60;;;5.40;99.90;;;;;;5071585;28;20598;-70
2023/01/09 05:14:48;;;;;;;0.90;0.70;;;5.40;99.90;;;;;;5071254;28;20211;-70
2023/01/09 05:17:16;;;;;;;1.35;0.60;;;5.30;99.90;;;;;;5071087;28;20223;-71
2023/01/09 05:19:44;;;;;;;1.35;0.80;;;5.30;99.90;;;;;;5070602;28;20200;-70
2023/01/09 05:22:12;;;;;;;0.70;0.60;;;5.30;99.90;;;;;;5071163;28;20224;-71
2023/01/09 05:24:38;;;;;;;0.80;0.70;;;5.20;99.90;;;;;;5071140;28;20204;-69
2023/01/09 05:27:05;;;;;;;0.80;0.80;;;5.20;99.90;;;;;;5069656;28;20216;-71
2023/01/09 05:29:32;;;;;;;1.02;0.70;;;5.20;99.90;;;;;;5069743;28;20777;-70
2023/01/09 05:31:59;;;;;;;1.20;0.90;;;5.20;99.90;;;;;;5069833;28;20291;-70
2023/01/09 05:34:27;;;;;;;0.88;0.60;;;5.20;99.90;;;;;;5069413;28;20205;-69
2023/01/09 05:36:54;;;;;;;0.70;0.60;;;5.10;99.90;;;;;;5069028;28;20349;-70
2023/01/09 05:39:20;;;;;;;1.65;0.75;;;5.10;99.90;;;;;;5068346;28;20663;-70
2023/01/09 05:41:47;;;;;;;1.00;0.88;;;5.00;99.90;;;;;;5069334;28;20224;-69
2023/01/09 05:44:14;;;;;;;0.70;0.60;;;5.00;99.90;;;;;;5069388;28;20200;-69
2023/01/09 05:46:40;;;;;;;0.80;0.60;;;5.00;99.90;;;;;;5069719;28;20228;-69
2023/01/09 05:49:07;;;;;;;1.00;0.90;;;5.00;99.90;;;;;;5070698;28;20303;-69
2023/01/09 05:51:35;;;;;;;0.90;0.80;;;4.90;99.90;;;;;;5070992;28;20681;-69
2023/01/09 05:54:02;;;;;;;0.80;0.70;;;4.90;99.90;;;;;;5070880;28;20211;-70
2023/01/09 05:56:29;;;;;;;0.80;0.70;;;4.80;99.90;;;;;;5070888;28;20220;-70
2023/01/09 05:58:56;;;;;;;0.70;0.60;;;4.70;99.90;;;;;;5070429;28;20228;-70
2023/01/09 06:01:23;;;;;;;1.48;0.70;;;4.70;99.90;;;;;;5070814;28;20224;-70
2023/01/09 06:03:49;;;;;;;0.80;0.70;;;4.70;99.90;;;;;;5070988;28;20200;-70
2023/01/09 06:06:16;;;;;;;1.08;0.80;;;4.60;99.90;;;;;;5070825;28;20220;-70
2023/01/09 06:08:44;;;;;;;0.80;0.70;;;4.60;99.90;;;;;;5070179;28;20207;-69
2023/01/09 06:11:11;;;;;;;2.05;0.80;;;4.50;99.90;;;;;;5070485;28;20196;-69
2023/01/09 06:13:37;;;;;;;0.90;0.70;;;4.50;99.90;;;;;;5070669;28;20215;-69
2023/01/09 06:16:05;;;;;;;0.90;0.70;;;4.40;99.90;;;;;;5070639;28;20220;-70
2023/01/09 06:18:32;;;;;;;1.80;0.80;;;4.30;99.90;;;;;;5070076;28;20205;-69
2023/01/09 06:20:58;;;;;;;0.70;0.60;;;4.30;99.90;;;;;;5071023;28;20228;-69
2023/01/09 06:23:25;;;;;;;1.23;0.70;;;4.20;99.90;;;;;;5074794;28;20200;-69
2023/01/09 06:25:53;;;;;;;0.80;0.68;;;4.20;99.90;;;;;;5074725;28;20220;-69
2023/01/09 06:28:20;;;;;;;1.00;0.70;;;4.20;99.90;;;;;;5074213;28;20204;-70
2023/01/09 06:30:50;;;;;;;1.10;0.75;;;4.10;99.90;;;;;;5074598;28;20645;-69
2023/01/09 06:33:17;;;;;;;0.80;0.70;;;4.10;99.90;;;;;;5074785;28;20207;-69
2023/01/09 06:35:44;;;;;;;1.13;0.98;;;4.10;99.90;;;;;;5074307;28;20711;-70
2023/01/09 06:38:11;;;;;;;1.52;0.90;;;4.10;99.90;;;;;;5074054;28;20545;-69
2023/01/09 06:40:37;;;;;;;0.70;0.60;;;4.20;99.90;;;;;;5073995;28;20691;-69
2023/01/09 06:43:06;;;;;;;0.90;0.80;;;4.10;99.90;;;;;;5074232;28;20211;-70
2023/01/09 06:45:33;;;;;;;0.80;0.70;;;4.10;99.90;;;;;;5074456;28;20204;-69
2023/01/09 06:47:59;;;;;;;0.80;0.70;;;4.10;99.90;;;;;;5074297;28;20839;-70
2023/01/09 06:50:26;;;;;;;1.85;0.80;;;4.20;99.90;;;;;;5073955;28;20227;-69
2023/01/09 06:52:53;;;;;;;1.15;0.70;;;4.20;99.90;;;;;;5074247;28;20197;-69
2023/01/09 06:55:20;;;;;;;2.20;0.80;;;4.20;99.90;;;;;;5074498;28;20559;-70
2023/01/09 06:57:46;;;;;;;1.98;0.90;;;4.30;99.90;;;;;;5074143;28;20211;-70
2023/01/09 07:00:15;;;;;;;1.20;0.90;;;4.30;99.90;;;;;;5073703;28;20545;-70
2023/01/09 07:02:42;;;;;;;3.92;1.00;;;4.30;99.90;;;;;;5074018;28;20262;-70
2023/01/09 07:05:10;;;;;;;1.40;0.90;;;4.30;99.90;;;;;;5073738;28;20192;-68
2023/01/09 07:07:37;;;;;;;1.23;0.88;;;4.40;99.90;;;;;;5073862;28;20243;-69
2023/01/09 07:10:04;;;;;;;1.80;1.25;;;4.40;99.90;;;;;;5073411;28;20209;-70
2023/01/09 07:12:31;;;;;;;1.08;0.90;;;4.50;99.90;;;;;;5073987;28;20204;-68
2023/01/09 07:14:58;;;;;;;1.52;0.75;;;4.50;99.90;;;;;;5073759;28;20204;-70
2023/01/09 07:17:26;;;;;;;1.10;1.00;;;4.50;99.90;;;;;;5073958;28;20216;-69
2023/01/09 07:19:53;;;;;;;0.90;0.80;;;4.50;99.90;;;;;;5073111;28;20200;-70
2023/01/09 07:22:20;;;;;;;1.05;0.80;;;4.50;99.90;;;;;;5073697;28;20251;-70
2023/01/09 07:24:47;;;;;;;1.27;1.00;;;4.60;99.90;;;;;;5073524;28;20675;-70
2023/01/09 07:27:14;;;;;;;1.65;0.90;;;4.60;99.90;;;;;;5073634;28;20220;-70
2023/01/09 07:29:40;;;;;;;0.80;0.80;;;4.60;99.90;;;;;;5072709;28;20713;-69
2023/01/09 07:32:07;;;;;;;0.70;0.70;;;4.60;99.90;;;;;;5073275;28;20271;-69
2023/01/09 07:34:35;;;;;;;1.08;1.00;;;4.60;99.90;;;;;;5073831;28;20212;-70
2023/01/09 07:37:02;;;;;;;1.00;0.88;;;4.60;99.90;;;;;;5072763;28;20231;-69
2023/01/09 07:39:29;;;;;;;1.33;0.80;;;4.60;99.90;;;;;;5072634;28;20454;-70
2023/01/09 07:41:55;;;;;;;1.10;0.90;;;4.50;99.90;;;;;;5072760;28;20601;-69
2023/01/09 07:44:22;;;;;;;2.65;1.00;;;4.50;99.90;;;;;;5073300;28;20208;-69
2023/01/09 07:46:49;;;;;;;1.00;0.70;;;4.60;99.90;;;;;;5073084;28;20220;-70
2023/01/09 07:49:15;;;;;;;1.10;1.00;;;4.60;99.90;;;;;;5072192;28;20195;-70
2023/01/09 07:51:44;;;;;;;1.42;0.80;;;4.60;99.90;;;;;;5072259;28;20773;-69
2023/01/09 07:54:12;;;;;;;1.58;1.00;;;4.60;99.90;;;;;;5073086;28;20211;-69
2023/01/09 07:56:39;;;;;;;3.00;0.85;;;4.60;99.90;;;;;;5072916;28;20242;-69
2023/01/09 07:59:06;;;;;;;1.98;1.02;;;4.60;99.90;;;;;;5072503;28;20207;-70
2023/01/09 08:01:33;;;;;;;1.13;0.95;;;4.60;99.90;;;;;;5073096;28;20216;-70
2023/01/09 08:03:59;;;;;;;2.45;1.40;;;4.60;99.90;;;;;;5072805;28;20215;-69
2023/01/09 08:06:26;;;;;;;1.92;0.95;;;4.70;99.90;;;;;;5072733;28;20231;-69
2023/01/09 08:08:54;;;;;;;1.08;0.90;;;4.80;99.90;;;;;;5072113;28;20200;-69
2023/01/09 08:11:21;;;;;;;1.00;0.80;;;5.00;99.90;;;;;;5072756;28;20607;-69
2023/01/09 08:13:48;;;;;;;1.42;0.88;;;5.10;99.90;;;;;;5072704;28;20298;-69
2023/01/09 08:16:14;;;;;;;1.08;0.98;;;5.30;99.90;;;;;;5072707;28;20216;-70
2023/01/09 08:18:41;;;;;;;1.42;1.08;;;5.60;99.90;;;;;;5071999;28;20710;-69
2023/01/09 08:21:10;;;;;;;1.20;0.90;;;6.10;99.90;;;;;;5072349;28;20594;-69
2023/01/09 08:23:36;;;;;;;1.08;0.82;;;6.30;99.90;;;;;;5072678;28;20204;-69
2023/01/09 08:26:05;;;;;;;1.20;0.90;;;6.20;99.90;;;;;;5072236;28;20227;-68
2023/01/09 08:28:32;;;;;;;1.30;0.90;;;6.10;99.90;;;;;;5071863;28;20200;-68
2023/01/09 08:30:59;;;;;;;1.00;0.85;;;5.80;99.90;;;;;;5072336;28;20212;-68
2023/01/09 08:33:26;;;;;;;1.30;1.05;;;6.00;99.90;;;;;;5072345;28;20193;-69
2023/01/09 08:35:52;;;;;;;1.00;0.80;;;6.50;99.90;;;;;;5072393;28;20226;-69
2023/01/09 08:38:20;;;;;;;1.88;0.80;;;7.10;99.90;;;;;;5071844;28;20224;-68
2023/01/09 08:40:47;;;;;;;1.13;0.70;;;7.60;99.90;;;;;;5072141;28;20228;-69
2023/01/09 08:48:46;;;;;;;2.75;1.05;;;7.90;99.90;;;;;;5071514;28;20249;-69
2023/01/09 08:51:13;;;;;;;2.45;1.33;;;7.70;99.90;;;;;;5071902;28;20620;-69
2023/01/09 08:53:40;;;;;;;1.45;1.00;;;7.50;99.90;;;;;;5071684;28;20200;-69
2023/01/09 08:56:07;;;;;;;1.58;1.02;;;7.20;99.90;;;;;;5064226;28;20232;-69
2023/01/09 08:58:35;;;;;;;2.05;1.10;;;7.00;99.90;;;;;;5069374;28;20196;-69
2023/01/09 09:01:05;;;;;;;1.20;0.88;;;7.00;99.90;;;;;;5070285;28;20208;-69
2023/01/09 09:03:32;;;;;;;0.80;0.70;;;7.30;99.90;;;;;;5070445;28;20232;-69
2023/01/09 09:05:58;;;;;;;1.20;1.10;;;7.40;99.90;;;;;;5069850;28;20235;-69
2023/01/09 09:08:25;;;;;;;1.30;0.90;;;7.40;99.90;;;;;;5069408;28;20204;-69
2023/01/09 09:10:52;;;;;;;1.20;1.00;;;7.20;99.90;;;;;;5069870;28;20234;-69
2023/01/09 09:13:19;;;;;;;1.23;0.90;;;7.00;99.90;;;;;;5070655;28;20200;-69
2023/01/09 09:15:47;;;;;;;1.33;0.90;;;7.00;99.90;;;;;;5069927;28;20224;-69
2023/01/09 09:18:15;;;;;;;3.25;1.20;;;7.00;99.90;;;;;;5069021;28;20211;-69
2023/01/09 09:20:42;;;;;;;1.00;0.80;;;7.10;99.90;;;;;;5069607;28;20254;-70
2023/01/09 09:23:09;;;;;;;3.25;1.20;;;7.30;99.90;;;;;;5070071;28;20224;-69
2023/01/09 09:25:37;;;;;;;1.30;0.80;;;7.40;99.90;;;;;;5066137;28;20294;-69
2023/01/09 09:28:04;;;;;;;1.25;1.02;;;7.80;99.90;;;;;;5071083;28;20208;-69
2023/01/09 09:30:30;;;;;;;1.05;0.80;;;8.70;99.90;;;;;;5070651;28;20211;-69
2023/01/09 09:32:58;;;;;;;1.80;1.00;;;9.10;99.90;;;;;;5070172;28;20212;-69
2023/01/09 09:35:27;;;;;;;1.27;0.80;;;8.60;99.90;;;;;;5070779;28;20211;-69
2023/01/09 09:37:55;;;;;;;2.88;1.17;;;8.20;99.90;;;;;;5070987;28;20208;-69
2023/01/09 09:40:35;;;;;;;1.80;0.93;;;8.10;99.90;;;;;;5070274;28;20200;-69
2023/01/09 09:46:18;;;;;;;2.65;1.10;;;7.30;99.90;;;;;;5066482;28;20227;-69
2023/01/09 09:48:51;;;;;;;0.95;0.88;;;7.30;99.90;;;;;;5049659;28;20288;-70
2023/01/09 09:51:50;;;;;;;2.00;1.17;;;7.20;99.90;;;;;;5050599;28;20210;-69
2023/01/09 09:54:20;;;;;;;1.60;1.20;;;7.00;99.90;;;;;;5049919;28;20205;-69
2023/01/09 09:56:51;;;;;;;1.42;0.90;;;7.00;99.90;;;;;;5049513;28;20327;-69
2023/01/09 09:59:20;;;;;;;2.28;1.00;;;6.90;99.90;;;;;;5049992;28;20204;-70
2023/01/09 10:01:52;;;;;;;2.10;1.13;;;6.90;99.90;;;;;;5049579;28;20216;-69
2023/01/09 10:04:23;;;;;;;1.30;0.95;;;6.80;99.90;;;;;;5050562;28;20208;-69
2023/01/09 10:06:54;;;;;;;3.83;1.42;;;6.70;99.90;;;;;;5049891;28;20229;-69
2023/01/09 10:09:28;;;;;;;2.28;1.20;;;6.60;99.90;;;;;;5049016;28;20307;-69
2023/01/09 10:11:59;;;;;;;1.10;0.80;;;6.50;99.90;;;;;;5049940;28;20200;-70
2023/01/09 10:14:26;;;;;;;1.52;0.90;;;6.50;99.90;;;;;;5050340;28;20221;-69
2023/01/09 10:17:27;;;;;;;1.00;0.80;;;6.50;99.90;;;;;;5049309;28;20227;-69
2023/01/09 10:20:11;;;;;;;7.40;1.50;;;6.60;99.90;;;;;;5049455;28;20206;-69
2023/01/09 10:22:49;;;;;;;1.60;0.93;;;6.60;99.90;;;;;;5050025;28;20529;-69
2023/01/09 10:25:24;;;;;;;2.78;0.98;;;6.60;99.90;;;;;;5049999;28;20208;-69
2023/01/09 10:28:11;;;;;;;4.30;1.15;;;6.50;99.90;;;;;;5049763;28;20208;-70
2023/01/09 10:30:43;;;;;;;11.20;1.70;;;6.50;99.90;;;;;;5050176;28;20211;-70
2023/01/09 10:33:25;;;;;;;2.90;1.02;;;6.50;99.90;;;;;;5049628;28;20198;-69
2023/01/09 10:36:20;;;;;;;3.60;1.10;;;6.50;99.90;;;;;;5049790;28;20221;-70
2023/01/09 10:38:50;;;;;;;1.75;0.80;;;6.50;99.90;;;;;;5035103;28;20200;-70
2023/01/09 10:41:22;;;;;;;2.55;1.20;;;6.50;99.90;;;;;;5050128;28;20209;-70
2023/01/09 10:43:55;;;;;;;1.00;0.80;;;6.50;99.90;;;;;;5049759;28;20221;-70
2023/01/09 10:46:26;;;;;;;3.40;1.15;;;6.50;99.90;;;;;;5055211;28;20626;-70
2023/01/09 10:48:58;;;;;;;1.23;1.00;;;6.60;99.90;;;;;;5049853;28;20205;-69
2023/01/09 10:51:32;;;;;;;1.30;0.90;;;6.50;99.90;;;;;;5053827;28;20203;-69
2023/01/09 10:53:59;;;;;;;2.38;1.10;;;6.60;99.90;;;;;;5069626;28;20597;-69
2023/01/09 10:56:28;;;;;;;1.35;0.95;;;6.50;99.90;;;;;;5062485;28;20221;-69
2023/01/09 10:58:55;;;;;;;1.60;1.00;;;6.50;99.90;;;;;;5068593;28;20196;-69
2023/01/09 11:01:26;;;;;;;1.60;1.00;;;6.50;99.90;;;;;;5067088;28;20211;-69
2023/01/09 11:03:53;;;;;;;1.10;0.98;;;6.60;99.90;;;;;;5068573;28;20749;-69
2023/01/09 11:06:24;;;;;;;1.75;1.00;;;6.60;99.90;;;;;;5064918;28;20224;-69
2023/01/09 11:08:55;;;;;;;2.45;1.20;;;6.70;99.90;;;;;;5072667;28;20224;-68
2023/01/09 11:11:33;;;;;;;1.63;1.05;;;6.70;99.90;;;;;;5073631;28;20212;-69
2023/01/09 11:14:13;;;;;;;2.45;1.13;;;6.70;99.90;;;;;;5072677;28;20196;-69
2023/01/09 11:16:52;;;;;;;1.45;1.05;;;6.70;99.90;;;;;;5073467;28;20231;-68
2023/01/09 11:19:19;;;;;;;9.98;1.25;;;6.70;99.90;;;;;;5072720;28;20204;-68
2023/01/09 11:21:46;;;;;;;1.30;1.20;;;6.70;99.90;;;;;;5072971;28;20207;-68
2023/01/09 11:24:30;;;;;;;0.75;0.68;;;6.80;99.90;;;;;;5072947;28;20224;-69
2023/01/09 11:27:26;;;;;;;1.40;1.27;;;6.90;99.90;;;;;;5073072;28;20224;-69
2023/01/09 11:30:25;;;;;;;2.33;1.25;;;7.00;99.90;;;;;;5072614;28;20211;-69
2023/01/09 11:32:53;;;;;;;1.30;0.77;;;7.10;99.90;;;;;;5073005;28;20624;-69
2023/01/09 11:35:29;;;;;;;2.47;1.30;;;7.30;99.90;;;;;;5072850;28;20200;-69
2023/01/09 11:38:07;;;;;;;4.10;1.25;;;8.00;99.90;;;;;;5072426;28;20286;-69
2023/01/09 11:40:46;;;;;;;2.92;1.20;;;9.30;99.90;;;;;;5072802;28;20208;-68
2023/01/09 11:43:17;;;;;;;1.20;0.93;;;10.80;99.90;;;;;;5072691;28;20227;-70
2023/01/09 11:45:50;;;;;;;1.30;1.10;;;11.70;99.90;;;;;;5072648;28;20243;-69
2023/01/09 11:48:26;;;;;;;3.28;1.10;;;12.10;99.90;;;;;;5072042;28;20295;-69
2023/01/09 11:50:55;;;;;;;4.40;1.17;;;12.30;99.90;;;;;;5072332;28;20200;-69
2023/01/09 11:53:22;;;;;;;3.95;1.27;;;11.10;99.90;;;;;;5072761;28;20229;-69
2023/01/09 11:55:56;;;;;;;3.08;1.13;;;9.90;99.90;;;;;;5072934;28;20228;-69
2023/01/09 11:58:23;;;;;;;1.52;1.10;;;9.30;99.90;;;;;;5072063;28;20203;-69
2023/01/09 12:01:00;;;;;;;1.10;0.75;;;8.90;99.90;;;;;;5071992;28;20207;-69
2023/01/09 12:03:50;;;;;;;1.65;1.08;;;8.60;99.90;;;;;;5072352;28;20246;-69
2023/01/09 12:06:30;;;;;;;1.40;1.10;;;8.60;99.90;;;;;;5073032;28;20216;-69
2023/01/09 12:09:00;;;;;;;1.90;1.33;;;8.70;99.90;;;;;;5071571;28;20204;-69
2023/01/09 12:11:34;;;;;;;1.40;0.80;;;8.70;99.90;;;;;;5072506;28;20212;-69
2023/01/09 12:14:19;;;;;;;1.75;1.35;;;8.50;99.90;;;;;;5071809;28;20196;-69
2023/01/09 12:17:02;;;;;;;1.08;0.80;;;8.30;99.90;;;;;;5072171;28;20221;-69
2023/01/09 12:19:56;;;;;;;1.27;1.05;;;8.10;99.90;;;;;;5070277;28;20200;-70
2023/01/09 12:22:30;;;;;;;3.50;1.25;;;8.00;99.90;;;;;;5072059;28;20204;-69
2023/01/09 12:25:13;;;;;;;4.07;1.10;;;8.00;99.90;;;;;;5071522;28;20624;-69
2023/01/09 12:27:59;;;;;;;1.13;0.88;;;8.00;99.90;;;;;;5071669;28;20231;-69
2023/01/09 12:30:39;;;;;;;4.93;1.45;;;8.00;99.90;;;;;;5071353;28;20541;-69
2023/01/09 12:33:18;;;;;;;2.78;1.00;;;8.10;99.90;;;;;;5071508;28;20589;-69
2023/01/09 12:35:52;;;;;;;1.90;1.02;;;8.20;99.90;;;;;;5071924;28;20243;-70
2023/01/09 12:38:35;;;;;;;1.80;0.95;;;8.10;99.90;;;;;;5071066;28;20199;-70
2023/01/09 12:41:13;;;;;;;1.00;0.85;;;8.20;99.90;;;;;;5071074;28;20212;-69
2023/01/09 12:43:51;;;;;;;1.10;0.95;;;8.20;99.90;;;;;;5071514;28;20220;-70
2023/01/09 12:46:19;;;;;;;10.18;3.72;;;8.10;99.90;;;;;;5071684;28;20224;-70
2023/01/09 12:49:08;;;;;;;2.45;1.35;;;8.20;99.90;;;;;;5070534;28;20200;-69
2023/01/09 12:51:40;;;;;;;1.38;1.05;;;8.10;99.90;;;;;;5070998;28;20207;-69
2023/01/09 12:54:15;;;;;;;1.00;0.85;;;8.10;99.90;;;;;;5071145;28;20215;-69
2023/01/09 12:56:45;;;;;;;0.90;0.77;;;8.10;99.90;;;;;;5070979;28;20223;-69
2023/01/09 12:59:28;;;;;;;0.80;0.80;;;8.20;99.90;;;;;;5070868;28;20677;-69
2023/01/09 13:02:04;;;;;;;1.27;0.98;;;8.30;99.90;;;;;;5070589;28;20200;-69
2023/01/09 13:04:35;;;;;;;2.95;1.08;;;8.20;99.90;;;;;;5068461;28;20223;-69
2023/01/09 13:07:09;;;;;;;1.75;1.00;;;8.10;99.90;;;;;;5071149;28;20916;-69
2023/01/09 13:09:41;;;;;;;1.40;1.20;;;8.00;99.90;;;;;;5071025;28;20228;-69
2023/01/09 13:12:12;;;;;;;2.22;1.30;;;8.00;99.90;;;;;;5067728;28;20204;-69
2023/01/09 13:14:49;;;;;;;1.00;0.73;;;7.90;99.90;;;;;;5067095;28;20624;-69
2023/01/09 13:17:21;;;;;;;1.10;0.90;;;7.70;99.90;;;;;;5070245;28;20228;-69
2023/01/09 13:19:47;;;;;;;4.07;1.35;;;7.50;99.90;;;;;;5069433;28;20200;-69
2023/01/09 13:22:16;;;;;;;1.33;0.95;;;7.40;99.90;;;;;;5070105;28;20615;-69
2023/01/09 13:25:06;;;;;;;1.38;1.00;;;7.40;99.90;;;;;;5070151;28;20600;-69
2023/01/09 13:27:38;;;;;;;0.80;0.70;;;7.50;99.90;;;;;;5066954;28;20735;-69